Elkridge, Maryland
Current Conditions -  °F | °C
As of 3:54 AM on Wednesday 22 Oct 2014 (Local Time) from KBWI Reporting Station
Light Rain Light Rain  
Wind Chill: 53°   Ceiling: 6500
Heat Index: 53°   Visibility: 7mi
Dew Point: 51°   Wind: 7mph
Humidity: 93%   Direction: 320°NW
Pressure: 29.85"   Gusts: NA
Location:  39.21°N, 76.73°W
Report Text: KBWI 220754Z 32006KT 7SM -RA FEW020 SCT037 OVC065 12/11 A2985 RMK AO2 SLP107 P0002 T01170106
Loading
Personal Weather Stations






























Interactive Weather Map
Tropical Storm Tracking
New forecast layout! Learn more

10-Day Weather Forecast

Advertisements
Track Severe Weather on mobile